createdAt,value
2023-04-29T00:02:00.348Z,96066.91
2023-04-29T00:04:35.042Z,96064.19
2023-04-29T00:07:09.479Z,96052.66
2023-04-29T00:09:42.285Z,96056.50
2023-04-29T00:12:14.993Z,96047.97
2023-04-29T00:14:47.683Z,96058.75
2023-04-29T00:17:20.430Z,96057.97
2023-04-29T00:19:54.949Z,96056.00
2023-04-29T00:22:28.030Z,96053.31
2023-04-29T00:25:00.907Z,96064.88
2023-04-29T00:27:33.713Z,96053.31
2023-04-29T00:30:08.263Z,96051.41
2023-04-29T00:32:41.009Z,96046.41
2023-04-29T00:35:15.152Z,96047.56
2023-04-29T00:37:48.233Z,96043.72
2023-04-29T00:40:21.054Z,96044.84
2023-04-29T00:42:53.988Z,96051.81
2023-04-29T00:45:27.637Z,96045.63
2023-04-29T00:48:00.382Z,96055.28
2023-04-29T00:50:34.751Z,96052.16
2023-04-29T00:53:08.296Z,96047.13
2023-04-29T00:55:42.465Z,96057.94
2023-04-29T00:58:15.619Z,96060.63
2023-04-29T01:00:49.622Z,96052.53
2023-04-29T01:03:23.952Z,96042.13
2023-04-29T01:06:04.676Z,96042.13
2023-04-29T01:08:42.400Z,96043.28
2023-04-29T01:11:17.443Z,96048.69
2023-04-29T01:13:51.713Z,96049.06
2023-04-29T01:16:26.529Z,96048.69
2023-04-29T01:19:01.496Z,96048.69
2023-04-29T01:21:46.357Z,96051.38
2023-04-29T01:24:20.573Z,96042.53
2023-04-29T01:26:57.353Z,96046.38
2023-04-29T01:29:34.371Z,96035.56
2023-04-29T01:32:09.327Z,96040.97
2023-04-29T01:34:45.749Z,96036.34
2023-04-29T01:37:21.485Z,96038.66
2023-04-29T01:39:59.241Z,96048.69
2023-04-29T01:42:37.528Z,96046.38
2023-04-29T01:45:12.025Z,96052.53
2023-04-29T01:47:46.424Z,96049.47
2023-04-29T01:50:19.142Z,96061.81
2023-04-29T01:52:52.162Z,96050.66
2023-04-29T01:55:26.308Z,96050.31
2023-04-29T01:57:59.283Z,96049.56
2023-04-29T02:00:32.059Z,96052.25
2023-04-29T02:03:05.256Z,96045.34
2023-04-29T02:05:38.119Z,96055.38
2023-04-29T02:08:10.910Z,96054.63
2023-04-29T02:10:52.482Z,96058.47
2023-04-29T02:13:25.340Z,96049.59
2023-04-29T02:15:58.680Z,96051.53
2023-04-29T02:18:31.409Z,96059.63
2023-04-29T02:21:04.172Z,96053.81
2023-04-29T02:23:37.632Z,96048.00
2023-04-29T02:26:12.181Z,96043.78
2023-04-29T02:28:44.849Z,96046.84
2023-04-29T02:31:17.694Z,96040.63
2023-04-29T02:33:50.606Z,96034.47
2023-04-29T02:36:24.707Z,96035.25
2023-04-29T02:38:57.442Z,96037.94
2023-04-29T02:41:31.963Z,96033.69
2023-04-29T02:44:04.865Z,96029.84
2023-04-29T02:46:39.497Z,96030.22
2023-04-29T02:49:12.771Z,96037.94
2023-04-29T02:51:45.480Z,96038.31
2023-04-29T02:54:18.315Z,96035.25
2023-04-29T02:56:52.382Z,96032.91
2023-04-29T02:59:25.363Z,96034.47
2023-04-29T03:01:58.162Z,96041.44
2023-04-29T03:04:31.012Z,96037.16
2023-04-29T03:07:04.948Z,96042.22
2023-04-29T03:09:37.592Z,96051.09
2023-04-29T03:12:11.748Z,96048.41
2023-04-29T03:14:44.465Z,96044.91
2023-04-29T03:17:17.148Z,96046.47
2023-04-29T03:19:50.181Z,96044.56
2023-04-29T03:22:23.025Z,96044.16
2023-04-29T03:24:56.202Z,96043.34
2023-04-29T03:27:30.407Z,96034.91
2023-04-29T03:30:03.502Z,96028.28
2023-04-29T03:32:36.453Z,96030.97
2023-04-29T03:35:14.090Z,96030.94
2023-04-29T03:37:48.183Z,96036.75
2023-04-29T03:40:20.903Z,96039.41
2023-04-29T03:42:54.996Z,96028.56
2023-04-29T03:45:27.694Z,96030.47
2023-04-29T03:48:00.526Z,96013.47
2023-04-29T03:50:33.287Z,96014.22
2023-04-29T03:53:06.437Z,96013.03
2023-04-29T03:55:39.144Z,96021.09
2023-04-29T03:58:13.367Z,96019.94
2023-04-29T04:00:46.969Z,96024.91
2023-04-29T04:03:20.152Z,96014.06
2023-04-29T04:05:53.509Z,96015.63
2023-04-29T04:08:26.845Z,96010.59
2023-04-29T04:11:03.188Z,96023.25
2023-04-29T04:13:37.399Z,96019.75
2023-04-29T04:16:10.924Z,96018.97
2023-04-29T04:18:43.740Z,96020.84
2023-04-29T04:21:16.462Z,96017.00
2023-04-29T04:23:49.119Z,96026.59
2023-04-29T04:26:23.102Z,96028.09
2023-04-29T04:28:57.165Z,96038.09
2023-04-29T04:31:30.126Z,96044.97
2023-04-29T04:34:03.134Z,96053.03
2023-04-29T04:36:35.816Z,96060.34
2023-04-29T04:39:08.611Z,96062.66
2023-04-29T04:41:41.354Z,96064.56
2023-04-29T04:44:15.537Z,96066.13
2023-04-29T04:46:48.264Z,96066.88
2023-04-29T04:49:21.060Z,96073.44
2023-04-29T04:51:54.122Z,96075.00
2023-04-29T04:54:26.955Z,96074.28
2023-04-29T04:56:59.806Z,96076.63
2023-04-29T04:59:34.554Z,96079.34
2023-04-29T05:02:08.701Z,96080.53
2023-04-29T05:04:41.731Z,96080.16
2023-04-29T05:07:14.955Z,96080.97
2023-04-29T05:09:47.683Z,96083.66
2023-04-29T05:12:20.543Z,96076.75
2023-04-29T05:14:55.859Z,96087.22
2023-04-29T05:17:28.680Z,96078.03
2023-04-29T05:20:01.444Z,96084.25
2023-04-29T05:22:34.176Z,96082.84
2023-04-29T05:25:07.264Z,96084.16
2023-04-29T05:27:40.338Z,96091.34
2023-04-29T05:30:15.963Z,96093.88
2023-04-29T05:32:49.088Z,96091.78
2023-04-29T05:35:22.117Z,96101.25
2023-04-29T05:37:54.800Z,96101.38
2023-04-29T05:40:27.479Z,96106.13
2023-04-29T05:43:00.166Z,96106.19
2023-04-29T05:45:34.618Z,96108.53
2023-04-29T05:48:07.726Z,96112.00
2023-04-29T05:50:40.937Z,96108.91
2023-04-29T05:53:13.820Z,96108.91
2023-04-29T05:55:48.019Z,96113.91
2023-04-29T05:58:21.875Z,96115.38
2023-04-29T06:00:56.825Z,96119.97
2023-04-29T06:03:31.375Z,96121.09
2023-04-29T06:06:04.809Z,96128.38
2023-04-29T06:08:37.693Z,96127.88
2023-04-29T06:11:10.382Z,96132.09
2023-04-29T06:13:43.126Z,96118.06
2023-04-29T06:16:17.493Z,96117.22
2023-04-29T06:18:50.433Z,96119.50
2023-04-29T06:21:23.335Z,96121.81
2023-04-29T06:23:56.296Z,96127.25
2023-04-29T06:26:29.066Z,96137.72
2023-04-29T06:29:02.162Z,96124.53
2023-04-29T06:31:38.431Z,96135.78
2023-04-29T06:34:11.511Z,96132.69
2023-04-29T06:36:44.230Z,96130.41
2023-04-29T06:39:17.173Z,96130.81
2023-04-29T06:41:49.792Z,96123.91
2023-04-29T06:44:22.650Z,96132.88
2023-04-29T06:46:57.203Z,96135.63
2023-04-29T06:49:30.081Z,96132.53
2023-04-29T06:52:03.116Z,96132.19
2023-04-29T06:54:35.858Z,96139.56
2023-04-29T06:57:08.508Z,96138.81
2023-04-29T06:59:41.384Z,96138.41
2023-04-29T07:02:16.407Z,96139.56
2023-04-29T07:04:50.432Z,96131.75
2023-04-29T07:07:23.197Z,96135.59
2023-04-29T07:09:56.313Z,96134.38
2023-04-29T07:12:29.266Z,96142.03
2023-04-29T07:15:02.737Z,96134.22
2023-04-29T07:17:37.199Z,96130.22
2023-04-29T07:20:10.517Z,96144.09
2023-04-29T07:22:43.545Z,96135.09
2023-04-29T07:25:16.344Z,96141.59
2023-04-29T07:27:49.029Z,96134.91
2023-04-29T07:30:21.788Z,96139.50
2023-04-29T07:32:55.863Z,96135.56
2023-04-29T07:35:28.750Z,96145.63
2023-04-29T07:38:01.446Z,96150.28
2023-04-29T07:40:34.220Z,96145.19
2023-04-29T07:43:09.104Z,96143.56
2023-04-29T07:45:41.815Z,96154.44
2023-04-29T07:48:15.900Z,96153.22
2023-04-29T07:50:48.705Z,96158.63
2023-04-29T07:53:21.854Z,96158.59
2023-04-29T07:55:54.607Z,96162.81
2023-04-29T07:58:29.173Z,96163.50
2023-04-29T08:01:06.342Z,96150.97
2023-04-29T08:03:41.823Z,96148.97
2023-04-29T08:06:15.192Z,96153.13
2023-04-29T08:08:47.880Z,96149.47
2023-04-29T08:11:21.279Z,96161.03
2023-04-29T08:13:53.988Z,96154.31
2023-04-29T08:16:27.127Z,96163.16
2023-04-29T08:19:01.256Z,96161.22
2023-04-29T08:21:34.829Z,96157.31
2023-04-29T08:24:07.691Z,96157.31
2023-04-29T08:26:41.070Z,96158.09
2023-04-29T08:29:13.999Z,96156.50
2023-04-29T08:31:46.969Z,96165.03
2023-04-29T08:34:21.410Z,96161.84
2023-04-29T08:36:54.163Z,96161.03
2023-04-29T08:39:26.903Z,96160.59
2023-04-29T08:42:00.210Z,96154.81
2023-04-29T08:44:34.114Z,96160.66
2023-04-29T08:47:07.509Z,96154.47
2023-04-29T08:49:42.046Z,96157.69
2023-04-29T08:52:14.778Z,96159.31
2023-04-29T08:54:47.456Z,96151.19
2023-04-29T08:57:20.614Z,96143.78
2023-04-29T08:59:53.623Z,96150.72
2023-04-29T09:02:27.318Z,96146.28
2023-04-29T09:05:05.788Z,96152.38
2023-04-29T09:07:39.290Z,96153.41
2023-04-29T09:10:12.443Z,96154.47
2023-04-29T09:12:46.199Z,96150.94
2023-04-29T09:15:19.036Z,96148.19
2023-04-29T09:17:51.968Z,96154.84
2023-04-29T09:20:29.989Z,96142.38
2023-04-29T09:23:03.635Z,96146.69
2023-04-29T09:25:36.647Z,96148.66
2023-04-29T09:28:15.996Z,96151.38
2023-04-29T09:30:50.691Z,96145.50
2023-04-29T09:33:23.696Z,96152.88
2023-04-29T09:35:57.736Z,96140.72
2023-04-29T09:38:30.403Z,96144.94
2023-04-29T09:41:12.099Z,96139.41
2023-04-29T09:43:44.797Z,96145.47
2023-04-29T09:46:17.825Z,96140.25
2023-04-29T09:48:50.705Z,96136.88
2023-04-29T09:51:25.087Z,96141.81
2023-04-29T09:53:57.787Z,96136.25
2023-04-29T09:56:36.156Z,96136.88
2023-04-29T09:59:09.583Z,96130.09
2023-04-29T10:01:42.288Z,96127.66
2023-04-29T10:04:16.856Z,96140.06
2023-04-29T10:06:52.500Z,96132.97
2023-04-29T10:09:25.621Z,96124.78
2023-04-29T10:11:58.369Z,96123.59
2023-04-29T10:14:32.841Z,96109.09
2023-04-29T10:17:09.795Z,96113.72
2023-04-29T10:19:48.759Z,96118.34
2023-04-29T10:22:28.608Z,96122.13
2023-04-29T10:25:02.413Z,96116.22
2023-04-29T10:27:35.410Z,96113.44
2023-04-29T10:30:10.418Z,96105.59
2023-04-29T10:32:50.294Z,96113.34
2023-04-29T10:35:24.608Z,96106.69
2023-04-29T10:38:02.569Z,96102.78
2023-04-29T10:40:44.023Z,96092.19
2023-04-29T10:43:17.000Z,96095.28
2023-04-29T10:45:49.724Z,96080.84
2023-04-29T10:48:24.621Z,96090.16
2023-04-29T10:51:03.846Z,96085.03
2023-04-29T10:53:58.070Z,96076.41
2023-04-29T10:56:37.183Z,96078.31
2023-04-29T10:59:17.141Z,96074.72
2023-04-29T11:01:51.169Z,96074.22
2023-04-29T11:04:24.254Z,96072.94
2023-04-29T11:06:58.196Z,96072.47
2023-04-29T11:09:34.263Z,96071.13
2023-04-29T11:12:11.329Z,96070.19
2023-04-29T11:14:44.835Z,96059.06
2023-04-29T11:17:19.967Z,96069.47
2023-04-29T11:19:53.359Z,96061.22
2023-04-29T11:22:27.069Z,96063.88
2023-04-29T11:25:02.042Z,96063.75
2023-04-29T11:27:35.696Z,96065.66
2023-04-29T11:30:09.042Z,96061.63
2023-04-29T11:32:42.892Z,96058.81
2023-04-29T11:35:16.887Z,96057.97
2023-04-29T11:37:49.654Z,96064.53
2023-04-29T11:40:23.813Z,96059.41
2023-04-29T11:42:56.600Z,96054.63
2023-04-29T11:45:29.367Z,96060.31
2023-04-29T11:48:02.289Z,96054.69
2023-04-29T11:50:36.446Z,96058.34
2023-04-29T11:53:09.353Z,96059.94
2023-04-29T11:55:45.734Z,96053.75
2023-04-29T11:58:18.732Z,96054.13
2023-04-29T12:00:52.009Z,96051.44
2023-04-29T12:03:24.965Z,96053.78
2023-04-29T12:05:58.522Z,96049.97
2023-04-29T12:08:34.302Z,96050.50
2023-04-29T12:11:08.964Z,96050.75
2023-04-29T12:13:42.227Z,96044.38
2023-04-29T12:16:15.102Z,96047.88
2023-04-29T12:18:48.253Z,96047.13
2023-04-29T12:21:21.223Z,96044.38
2023-04-29T12:23:54.520Z,96039.31
2023-04-29T12:26:30.467Z,96039.44
2023-04-29T12:29:03.212Z,96037.25
2023-04-29T12:31:36.546Z,96039.00
2023-04-29T12:34:10.402Z,96040.41
2023-04-29T12:36:43.367Z,96039.09
2023-04-29T12:39:16.530Z,96045.53
2023-04-29T12:41:50.704Z,96032.78
2023-04-29T12:44:23.690Z,96029.03
2023-04-29T12:46:58.446Z,96033.84
2023-04-29T12:49:31.848Z,96032.84
2023-04-29T12:52:05.050Z,96042.38
2023-04-29T12:54:37.978Z,96032.69
2023-04-29T12:57:12.655Z,96036.31
2023-04-29T12:59:45.306Z,96030.50
2023-04-29T13:02:18.103Z,96030.94
2023-04-29T13:04:51.451Z,96032.47
2023-04-29T13:07:24.327Z,96021.44
2023-04-29T13:09:57.530Z,96032.94
2023-04-29T13:12:31.593Z,96039.00
2023-04-29T13:15:04.641Z,96036.41
2023-04-29T13:17:37.735Z,96031.94
2023-04-29T13:20:11.819Z,96023.94
2023-04-29T13:22:44.762Z,96028.56
2023-04-29T13:25:17.643Z,96023.06
2023-04-29T13:27:51.708Z,96016.81
2023-04-29T13:30:24.479Z,96010.56
2023-04-29T13:33:03.133Z,96008.94
2023-04-29T13:35:41.833Z,96007.31
2023-04-29T13:38:14.754Z,96011.47
2023-04-29T13:40:51.210Z,96015.19
2023-04-29T13:43:36.620Z,96017.84
2023-04-29T13:46:11.835Z,96017.75
2023-04-29T13:49:17.428Z,96017.63
2023-04-29T13:52:16.966Z,96013.81
2023-04-29T13:59:51.638Z,96015.19
2023-04-29T14:02:26.503Z,96020.38
2023-04-29T14:04:59.825Z,96012.56
2023-04-29T14:07:32.889Z,96016.44
2023-04-29T14:10:06.312Z,96014.44
2023-04-29T14:12:39.060Z,96022.56
2023-04-29T14:15:13.730Z,96015.09
2023-04-29T14:17:46.468Z,96030.69
2023-04-29T14:20:19.195Z,96021.69
2023-04-29T14:22:52.229Z,96027.59
2023-04-29T14:25:26.146Z,96013.13
2023-04-29T14:28:00.043Z,96012.78
2023-04-29T14:30:34.219Z,96018.41
2023-04-29T14:33:07.282Z,96018.81
2023-04-29T14:35:40.133Z,96023.19
2023-04-29T14:38:12.764Z,96023.41
2023-04-29T14:40:45.696Z,96020.47
2023-04-29T14:43:18.458Z,96029.63
2023-04-29T14:45:52.554Z,96023.56
2023-04-29T14:48:25.271Z,96022.66
2023-04-29T14:50:57.931Z,96029.53
2023-04-29T14:53:30.609Z,96027.09
2023-04-29T14:56:03.809Z,96033.94
2023-04-29T14:58:36.507Z,96028.31
2023-04-29T15:01:10.575Z,96018.78
2023-04-29T15:03:44.839Z,96032.28
2023-04-29T15:06:17.893Z,96028.19
2023-04-29T15:08:50.603Z,96027.19
2023-04-29T15:11:24.129Z,96022.22
2023-04-29T15:13:56.932Z,96029.75
2023-04-29T15:16:32.113Z,96026.66
2023-04-29T15:19:04.865Z,96031.81
2023-04-29T15:21:37.520Z,96053.34
2023-04-29T15:24:10.265Z,96044.13
2023-04-29T15:26:43.410Z,96044.28
2023-04-29T15:29:16.164Z,96038.63
2023-04-29T15:31:50.290Z,96034.97
2023-04-29T15:34:23.110Z,96035.53
2023-04-29T15:36:56.165Z,96039.28
2023-04-29T15:39:28.850Z,96039.94
2023-04-29T15:42:01.945Z,96047.94
2023-04-29T15:44:34.794Z,96048.16
2023-04-29T15:47:09.128Z,96055.41
2023-04-29T15:49:42.593Z,96048.53
2023-04-29T15:52:15.278Z,96044.81
2023-04-29T15:54:48.002Z,96050.84
2023-04-29T15:57:21.100Z,96052.59
2023-04-29T15:59:54.165Z,96053.91
2023-04-29T16:02:28.472Z,96062.66
2023-04-29T16:05:01.522Z,96061.56
2023-04-29T16:07:35.550Z,96060.53
2023-04-29T16:10:09.990Z,96071.56
2023-04-29T16:12:43.075Z,96071.25
2023-04-29T16:15:16.018Z,96073.66
2023-04-29T16:17:50.643Z,96069.53
2023-04-29T16:20:23.456Z,96077.75
2023-04-29T16:22:56.108Z,96077.47
2023-04-29T16:25:29.033Z,96082.22
2023-04-29T16:28:01.833Z,96088.91
2023-04-29T16:30:34.589Z,96088.19
2023-04-29T16:33:09.311Z,96093.69
2023-04-29T16:35:42.119Z,96087.16
2023-04-29T16:38:14.812Z,96088.81
2023-04-29T16:40:49.447Z,96092.38
2023-04-29T16:43:23.274Z,96086.59
2023-04-29T16:45:56.057Z,96096.00
2023-04-29T16:48:31.478Z,96092.22
2023-04-29T16:51:04.325Z,96096.13
2023-04-29T16:53:37.224Z,96098.97
2023-04-29T16:56:09.963Z,96099.00
2023-04-29T16:58:42.653Z,96104.50
2023-04-29T17:01:15.698Z,96103.41
2023-04-29T17:03:50.312Z,96113.94
2023-04-29T17:06:23.283Z,96112.84
2023-04-29T17:08:56.767Z,96116.41
2023-04-29T17:11:29.540Z,96114.47
2023-04-29T17:14:03.374Z,96107.13
2023-04-29T17:16:36.363Z,96121.59
2023-04-29T17:19:10.578Z,96116.22
2023-04-29T17:21:43.342Z,96121.31
2023-04-29T17:24:16.357Z,96124.50
2023-04-29T17:26:49.224Z,96127.31
2023-04-29T17:29:21.961Z,96127.38
2023-04-29T17:31:59.766Z,96126.63
2023-04-29T17:34:34.993Z,96134.09
2023-04-29T17:37:07.973Z,96127.19
2023-04-29T17:39:40.658Z,96137.34
2023-04-29T17:42:13.334Z,96140.53
2023-04-29T17:44:46.082Z,96139.06
2023-04-29T17:47:19.376Z,96139.16
2023-04-29T17:49:54.457Z,96146.19
2023-04-29T17:52:27.332Z,96156.75
2023-04-29T17:55:00.156Z,96163.00
2023-04-29T17:57:32.927Z,96160.72
2023-04-29T18:00:07.456Z,96160.00
2023-04-29T18:02:40.246Z,96163.97
2023-04-29T18:05:14.601Z,96161.28
2023-04-29T18:07:47.340Z,96170.22
2023-04-29T18:10:20.105Z,96173.00
2023-04-29T18:12:52.929Z,96176.91
2023-04-29T18:15:25.640Z,96181.19
2023-04-29T18:17:58.456Z,96185.09
2023-04-29T18:20:32.593Z,96194.38
2023-04-29T18:23:05.305Z,96194.81
2023-04-29T18:25:38.853Z,96190.94
2023-04-29T18:28:24.246Z,96194.44
2023-04-29T18:30:58.127Z,96194.81
2023-04-29T18:33:31.105Z,96192.53
2023-04-29T18:36:05.445Z,96200.66
2023-04-29T18:38:38.257Z,96203.00
2023-04-29T18:41:12.091Z,96201.44
2023-04-29T18:43:44.872Z,96201.47
2023-04-29T18:46:17.654Z,96195.66
2023-04-29T18:48:50.308Z,96209.22
2023-04-29T18:51:24.378Z,96204.19
2023-04-29T18:53:57.300Z,96206.13
2023-04-29T18:56:30.070Z,96220.06
2023-04-29T18:59:02.820Z,96217.75
2023-04-29T19:01:35.622Z,96216.97
2023-04-29T19:04:09.992Z,96228.59
2023-04-29T19:06:44.583Z,96223.53
2023-04-29T19:09:17.262Z,96230.91
2023-04-29T19:11:49.949Z,96232.41
2023-04-29T19:14:22.715Z,96228.56
2023-04-29T19:16:55.972Z,96238.22
2023-04-29T19:19:28.720Z,96241.28
2023-04-29T19:22:02.898Z,96246.69
2023-04-29T19:24:37.017Z,96249.00
2023-04-29T19:27:09.819Z,96250.13
2023-04-29T19:29:42.645Z,96255.13
2023-04-29T19:32:15.310Z,96263.22
2023-04-29T19:34:48.160Z,96269.34
2023-04-29T19:37:22.202Z,96264.66
2023-04-29T19:39:55.524Z,96274.72
2023-04-29T19:42:28.327Z,96273.91
2023-04-29T19:45:01.437Z,96284.31
2023-04-29T19:47:34.292Z,96282.34
2023-04-29T19:50:07.682Z,96286.22
2023-04-29T19:52:41.736Z,96284.66
2023-04-29T19:55:14.667Z,96291.97
2023-04-29T19:57:47.366Z,96290.03
2023-04-29T20:00:20.040Z,96293.88
2023-04-29T20:02:53.490Z,96299.66
2023-04-29T20:05:26.539Z,96298.13
2023-04-29T20:08:00.667Z,96302.38
2023-04-29T20:10:33.472Z,96307.00
2023-04-29T20:13:06.168Z,96304.66
2023-04-29T20:15:38.922Z,96307.75
2023-04-29T20:18:11.770Z,96314.72
2023-04-29T20:20:44.502Z,96320.13
2023-04-29T20:23:18.820Z,96317.00
2023-04-29T20:25:52.769Z,96308.84
2023-04-29T20:28:25.639Z,96321.22
2023-04-29T20:30:58.343Z,96316.22
2023-04-29T20:33:31.072Z,96324.72
2023-04-29T20:36:06.722Z,96324.66
2023-04-29T20:38:40.897Z,96332.38
2023-04-29T20:41:13.586Z,96329.28
2023-04-29T20:43:46.208Z,96331.53
2023-04-29T20:46:18.978Z,96332.31
2023-04-29T20:48:51.691Z,96338.81
2023-04-29T20:51:24.571Z,96334.53
2023-04-29T20:53:58.964Z,96341.84
2023-04-29T20:56:31.679Z,96338.34
2023-04-29T20:59:04.336Z,96337.84
2023-04-29T21:01:37.946Z,96340.91
2023-04-29T21:04:10.771Z,96341.63
2023-04-29T21:06:43.716Z,96336.22
2023-04-29T21:09:18.792Z,96344.66
2023-04-29T21:11:51.769Z,96341.94
2023-04-29T21:14:24.457Z,96339.53
2023-04-29T21:16:57.185Z,96349.13
2023-04-29T21:19:29.794Z,96348.31
2023-04-29T21:22:02.494Z,96344.75
2023-04-29T21:24:36.604Z,96346.22
2023-04-29T21:27:09.302Z,96347.38
2023-04-29T21:29:42.101Z,96351.94
2023-04-29T21:32:18.278Z,96343.03
2023-04-29T21:34:50.935Z,96339.16
2023-04-29T21:37:23.746Z,96342.53
2023-04-29T21:40:00.279Z,96343.28
2023-04-29T21:42:34.694Z,96349.00
2023-04-29T21:45:08.092Z,96349.34
2023-04-29T21:47:40.965Z,96337.66
2023-04-29T21:50:13.703Z,96335.25
2023-04-29T21:52:46.371Z,96335.59
2023-04-29T21:55:20.528Z,96343.56
2023-04-29T21:57:53.567Z,96340.84
2023-04-29T22:00:33.062Z,96339.97
2023-04-29T22:05:41.436Z,96340.94
2023-04-29T22:08:14.135Z,96340.47
2023-04-29T22:10:48.267Z,96341.56
2023-04-29T22:13:20.973Z,96337.19
2023-04-29T22:15:53.674Z,96327.09
2023-04-29T22:18:26.368Z,96337.81
2023-04-29T22:20:59.255Z,96337.78
2023-04-29T22:23:31.997Z,96332.66
2023-04-29T22:26:06.114Z,96330.72
2023-04-29T22:28:38.757Z,96333.78
2023-04-29T22:31:11.441Z,96332.91
2023-04-29T22:33:44.145Z,96340.59
2023-04-29T22:36:17.522Z,96338.19
2023-04-29T22:38:50.342Z,96347.00
2023-04-29T22:41:24.417Z,96341.91
2023-04-29T22:43:57.906Z,96338.38
2023-04-29T22:46:30.674Z,96338.72
2023-04-29T22:49:03.534Z,96346.81
2023-04-29T22:51:36.162Z,96346.81
2023-04-29T22:54:09.132Z,96345.19
2023-04-29T22:56:43.178Z,96347.44
2023-04-29T22:59:15.893Z,96350.13
2023-04-29T23:01:48.725Z,96352.44
2023-04-29T23:04:23.047Z,96352.78
2023-04-29T23:06:55.913Z,96352.00
2023-04-29T23:09:28.876Z,96356.63
2023-04-29T23:12:03.629Z,96357.03
2023-04-29T23:14:36.338Z,96357.81
2023-04-29T23:17:08.961Z,96354.00
2023-04-29T23:19:42.482Z,96355.53
2023-04-29T23:22:17.049Z,96360.16
2023-04-29T23:24:49.735Z,96360.53
2023-04-29T23:27:23.790Z,96363.56
2023-04-29T23:29:56.641Z,96366.19
2023-04-29T23:32:29.343Z,96368.06
2023-04-29T23:35:02.177Z,96362.59
2023-04-29T23:37:34.853Z,96360.97
2023-04-29T23:40:07.913Z,96365.50
2023-04-29T23:42:42.471Z,96368.94
2023-04-29T23:45:15.231Z,96364.25
2023-04-29T23:47:47.942Z,96360.78
2023-04-29T23:50:20.688Z,96366.53
2023-04-29T23:52:53.384Z,96360.00
2023-04-29T23:55:26.405Z,96359.22
2023-04-29T23:58:00.753Z,96360.00
